createdAt,value
2018-04-28T00:00:44.401Z,3.35
2018-04-28T00:03:11.021Z,4.53
2018-04-28T00:05:37.657Z,5.05
2018-04-28T00:08:04.311Z,3.60
2018-04-28T00:10:30.930Z,3.70
2018-04-28T00:12:57.550Z,4.10
2018-04-28T00:15:24.165Z,3.67
2018-04-28T00:17:50.797Z,3.22
2018-04-28T00:20:18.291Z,3.60
2018-04-28T00:22:44.907Z,3.35
2018-04-28T00:25:20.119Z,3.47
2018-04-28T00:27:47.479Z,3.20
2018-04-28T00:30:14.891Z,3.33
2018-04-28T00:32:41.529Z,3.47
2018-04-28T00:35:08.166Z,3.05
2018-04-28T00:37:35.658Z,3.28
2018-04-28T00:40:06.158Z,2.90
2018-04-28T00:42:33.533Z,3.58
2018-04-28T00:45:00.988Z,3.80
2018-04-28T00:47:27.638Z,3.25
2018-04-28T00:49:57.119Z,3.03
2018-04-28T00:52:24.423Z,3.60
2018-04-28T00:54:54.824Z,3.55
2018-04-28T00:57:37.234Z,2.92
2018-04-28T01:00:04.662Z,3.60
2018-04-28T01:02:31.354Z,3.50
2018-04-28T01:04:57.976Z,2.85
2018-04-28T01:07:24.586Z,2.90
2018-04-28T01:10:06.091Z,2.87
2018-04-28T01:12:33.414Z,3.53
2018-04-28T01:15:00.984Z,3.83
2018-04-28T01:17:29.094Z,3.12
2018-04-28T01:19:55.721Z,2.75
2018-04-28T01:22:24.142Z,3.40
2018-04-28T01:24:50.780Z,3.10
2018-04-28T01:27:23.265Z,2.80
2018-04-28T01:29:49.881Z,3.10
2018-04-28T01:32:16.520Z,3.60
2018-04-28T01:34:43.818Z,3.00
2018-04-28T01:37:22.251Z,4.30
2018-04-28T01:39:48.870Z,2.80
2018-04-28T01:42:15.576Z,3.10
2018-04-28T01:44:48.122Z,3.42
2018-04-28T01:47:20.627Z,2.85
2018-04-28T01:49:47.230Z,2.87
2018-04-28T01:52:15.813Z,2.95
2018-04-28T01:54:48.289Z,3.00
2018-04-28T01:57:15.850Z,3.45
2018-04-28T01:59:45.354Z,3.58
2018-04-28T02:02:11.978Z,3.10
2018-04-28T02:04:38.597Z,3.15
2018-04-28T02:07:05.208Z,3.30
2018-04-28T02:09:31.882Z,3.15
2018-04-28T02:11:58.483Z,2.80
2018-04-28T02:14:27.075Z,3.00
2018-04-28T02:16:53.706Z,3.00
2018-04-28T02:19:23.194Z,3.22
2018-04-28T02:22:01.583Z,3.20
2018-04-28T02:24:28.203Z,3.10
2018-04-28T02:26:55.678Z,3.10
2018-04-28T02:29:22.358Z,3.28
2018-04-28T02:32:09.602Z,2.55
2018-04-28T02:34:36.778Z,2.90
2018-04-28T02:37:09.142Z,3.05
2018-04-28T02:39:35.754Z,2.80
2018-04-28T02:42:05.250Z,3.33
2018-04-28T02:44:31.882Z,2.83
2018-04-28T02:47:13.431Z,3.37
2018-04-28T02:49:45.798Z,3.33
2018-04-28T02:52:16.320Z,2.95
2018-04-28T02:54:44.675Z,2.85
2018-04-28T02:57:27.065Z,2.92
2018-04-28T02:59:56.458Z,3.20
2018-04-28T03:02:24.712Z,2.80
2018-04-28T03:05:07.071Z,3.22
2018-04-28T03:07:34.450Z,3.00
2018-04-28T03:10:01.083Z,2.90
2018-04-28T03:12:27.707Z,2.95
2018-04-28T03:15:09.978Z,3.42
2018-04-28T03:17:36.597Z,3.33
2018-04-28T03:20:03.237Z,4.43
2018-04-28T03:22:30.788Z,3.10
2018-04-28T03:25:00.179Z,3.33
2018-04-28T03:27:29.614Z,3.60
2018-04-28T03:30:11.923Z,3.72
2018-04-28T03:32:38.569Z,3.40
2018-04-28T03:35:07.128Z,3.10
2018-04-28T03:37:35.534Z,3.60
2018-04-28T03:40:02.289Z,4.30
2018-04-28T03:42:45.614Z,3.67
2018-04-28T03:45:12.254Z,3.55
2018-04-28T03:47:40.894Z,3.80
2018-04-28T03:50:07.514Z,3.67
2018-04-28T03:52:40.161Z,3.30
2018-04-28T03:55:06.803Z,3.80
2018-04-28T03:57:39.400Z,4.12
2018-04-28T04:00:11.871Z,3.87
2018-04-28T04:02:44.371Z,4.25
2018-04-28T04:05:12.648Z,3.70
2018-04-28T04:07:40.097Z,4.32
2018-04-28T04:10:10.433Z,3.62
2018-04-28T04:12:37.094Z,3.97
2018-04-28T04:15:06.474Z,3.45
2018-04-28T04:17:39.125Z,4.37
2018-04-28T04:20:11.750Z,4.00
2018-04-28T04:22:39.281Z,3.75
2018-04-28T04:25:10.706Z,3.55
2018-04-28T04:27:39.955Z,3.78
2018-04-28T04:30:10.533Z,3.70
2018-04-28T04:32:37.994Z,3.45
2018-04-28T04:35:10.551Z,3.42
2018-04-28T04:37:52.067Z,3.28
2018-04-28T04:40:33.583Z,3.60
2018-04-28T04:43:01.123Z,3.00
2018-04-28T04:45:33.618Z,3.37
2018-04-28T04:48:06.265Z,3.28
2018-04-28T04:50:34.692Z,2.78
2018-04-28T04:53:21.129Z,2.75
2018-04-28T04:55:48.618Z,3.20
2018-04-28T04:58:18.993Z,3.00
2018-04-28T05:00:45.626Z,3.05
2018-04-28T05:03:19.281Z,3.55
2018-04-28T05:05:59.652Z,2.72
2018-04-28T05:08:32.363Z,2.87
2018-04-28T05:11:04.726Z,2.67
2018-04-28T05:13:38.305Z,3.25
2018-04-28T05:16:11.020Z,2.72
2018-04-28T05:18:43.710Z,3.20
2018-04-28T05:21:16.375Z,2.92
2018-04-28T05:23:45.701Z,3.40
2018-04-28T05:26:14.052Z,2.92
2018-04-28T05:28:42.639Z,3.50
2018-04-28T05:34:23.950Z,2.42
2018-04-28T05:36:53.616Z,2.80
2018-04-28T05:39:26.186Z,2.67
2018-04-28T05:42:12.739Z,2.35
2018-04-28T05:44:41.136Z,2.40
2018-04-28T05:47:13.764Z,2.97
2018-04-28T05:49:47.195Z,2.37
2018-04-28T05:52:19.805Z,3.12
2018-04-28T05:55:01.384Z,2.50
2018-04-28T05:57:33.907Z,2.45
2018-04-28T06:00:06.549Z,2.85
2018-04-28T06:02:39.330Z,2.70
2018-04-28T06:05:09.045Z,3.33
2018-04-28T06:07:38.554Z,2.85
2018-04-28T06:10:11.261Z,3.17
2018-04-28T06:12:40.098Z,2.97
2018-04-28T06:15:06.865Z,3.85
2018-04-28T06:17:34.598Z,2.80
2018-04-28T06:20:07.677Z,2.62
2018-04-28T06:22:34.431Z,2.80
2018-04-28T06:25:01.244Z,2.67
2018-04-28T06:27:28.245Z,2.90
2018-04-28T06:29:55.017Z,2.80
2018-04-28T06:32:21.795Z,2.70
2018-04-28T06:34:48.612Z,2.72
2018-04-28T06:37:15.512Z,3.12
2018-04-28T06:39:42.293Z,2.97
2018-04-28T06:42:08.987Z,3.20
2018-04-28T06:44:35.761Z,3.00
2018-04-28T06:47:02.455Z,3.53
2018-04-28T06:49:29.106Z,3.43
2018-04-28T06:51:56.008Z,3.20
2018-04-28T06:54:22.704Z,5.00
2018-04-28T06:56:49.404Z,8.40
2018-04-28T06:59:16.244Z,20.93
2018-04-28T07:01:42.982Z,5.90
2018-04-28T07:04:09.721Z,7.43
2018-04-28T07:06:36.674Z,5.37
2018-04-28T07:09:03.348Z,4.73
2018-04-28T07:11:30.214Z,3.87
2018-04-28T07:13:56.986Z,3.90
2018-04-28T07:16:24.616Z,2.80
2018-04-28T07:18:51.357Z,2.50
2018-04-28T07:21:18.068Z,3.77
2018-04-28T07:23:44.811Z,2.80
2018-04-28T07:26:11.552Z,3.00
2018-04-28T07:28:38.328Z,3.93
2018-04-28T07:31:05.070Z,2.50
2018-04-28T07:33:31.803Z,3.00
2018-04-28T07:35:58.579Z,2.93
2018-04-28T07:38:25.310Z,3.00
2018-04-28T07:40:52.038Z,3.73
2018-04-28T07:43:18.913Z,3.83
2018-04-28T07:45:45.685Z,3.40
2018-04-28T07:48:12.455Z,4.27
2018-04-28T07:50:39.234Z,3.13
2018-04-28T07:53:05.996Z,2.70
2018-04-28T07:55:32.742Z,2.43
2018-04-28T07:57:59.459Z,4.33
2018-04-28T08:00:26.331Z,2.47
2018-04-28T08:02:52.987Z,2.97
2018-04-28T08:05:19.723Z,3.50
2018-04-28T08:07:46.491Z,3.17
2018-04-28T08:10:13.259Z,2.70
2018-04-28T08:12:40.083Z,3.30
2018-04-28T08:15:06.833Z,2.87
2018-04-28T08:17:33.600Z,2.90
2018-04-28T08:20:00.402Z,2.77
2018-04-28T08:22:27.118Z,3.23
2018-04-28T08:24:53.822Z,2.97
2018-04-28T08:27:21.540Z,4.07
2018-04-28T08:29:48.355Z,2.80
2018-04-28T08:32:15.240Z,5.07
2018-04-28T08:34:41.953Z,7.43
2018-04-28T08:37:08.718Z,6.10
2018-04-28T08:39:35.401Z,3.37
2018-04-28T08:42:02.228Z,3.57
2018-04-28T08:44:28.984Z,4.33
2018-04-28T08:46:55.714Z,3.50
2018-04-28T08:49:22.475Z,3.10
2018-04-28T08:51:49.260Z,3.17
2018-04-28T08:54:16.015Z,2.87
2018-04-28T08:56:42.853Z,3.03
2018-04-28T08:59:09.604Z,2.83
2018-04-28T09:01:36.331Z,3.50
2018-04-28T09:04:03.178Z,2.70
2018-04-28T09:06:29.864Z,3.80
2018-04-28T09:08:56.677Z,2.97
2018-04-28T09:11:23.459Z,3.10
2018-04-28T09:13:50.173Z,2.90
2018-04-28T09:16:16.876Z,3.03
2018-04-28T09:18:43.630Z,2.70
2018-04-28T09:21:11.275Z,3.10
2018-04-28T09:23:38.058Z,2.90
2018-04-28T09:26:04.890Z,3.40
2018-04-28T09:28:31.577Z,3.60
2018-04-28T09:30:58.393Z,3.30
2018-04-28T09:33:25.159Z,3.87
2018-04-28T09:35:51.936Z,2.70
2018-04-28T09:38:18.756Z,3.13
2018-04-28T09:40:46.658Z,3.33
2018-04-28T09:43:13.387Z,3.07
2018-04-28T09:45:40.082Z,3.40
2018-04-28T09:48:06.805Z,3.70
2018-04-28T09:50:33.680Z,3.60
2018-04-28T09:53:00.354Z,3.00
2018-04-28T09:55:27.111Z,2.77
2018-04-28T09:57:59.730Z,2.60
2018-04-28T10:00:29.257Z,2.83
2018-04-28T10:02:56.939Z,2.97
2018-04-28T10:05:23.646Z,2.83
2018-04-28T10:07:50.328Z,2.70
2018-04-28T10:10:17.142Z,2.43
2018-04-28T10:12:43.912Z,2.30
2018-04-28T10:15:10.620Z,4.13
2018-04-28T10:17:37.320Z,2.47
2018-04-28T10:20:04.215Z,2.37
2018-04-28T10:22:30.866Z,3.00
2018-04-28T10:24:57.558Z,2.17
2018-04-28T10:27:24.339Z,2.90
2018-04-28T10:29:51.059Z,2.90
2018-04-28T10:32:17.908Z,2.83
2018-04-28T10:34:44.716Z,3.00
2018-04-28T10:37:11.565Z,3.07
2018-04-28T10:39:38.312Z,2.40
2018-04-28T10:42:05.131Z,2.17
2018-04-28T10:44:31.989Z,2.87
2018-04-28T10:46:58.640Z,2.30
2018-04-28T10:49:25.382Z,2.60
2018-04-28T10:51:52.195Z,2.30
2018-04-28T10:54:18.985Z,2.20
2018-04-28T10:56:45.773Z,2.30
2018-04-28T10:59:12.608Z,3.10
2018-04-28T11:01:39.365Z,2.30
2018-04-28T11:04:06.092Z,2.27
2018-04-28T11:06:32.792Z,2.00
2018-04-28T11:08:59.625Z,2.73
2018-04-28T11:11:26.294Z,2.60
2018-04-28T11:13:53.065Z,3.27
2018-04-28T11:16:20.027Z,2.50
2018-04-28T11:18:46.884Z,2.27
2018-04-28T11:21:14.037Z,3.10
2018-04-28T11:23:40.734Z,2.60
2018-04-28T11:26:07.502Z,2.20
2018-04-28T11:28:34.327Z,1.93
2018-04-28T11:31:01.025Z,2.08
2018-04-28T11:33:27.906Z,1.77
2018-04-28T11:35:54.777Z,2.13
2018-04-28T11:38:21.524Z,1.87
2018-04-28T11:40:48.342Z,1.90
2018-04-28T11:43:15.177Z,2.17
2018-04-28T11:45:41.995Z,1.97
2018-04-28T11:48:08.773Z,2.37
2018-04-28T11:50:35.504Z,1.97
2018-04-28T11:53:02.310Z,1.80
2018-04-28T11:55:29.009Z,1.70
2018-04-28T11:57:56.672Z,2.03
2018-04-28T12:00:23.443Z,2.60
2018-04-28T12:02:50.231Z,2.03
2018-04-28T12:05:17.025Z,1.80
2018-04-28T12:07:43.751Z,2.97
2018-04-28T12:10:10.618Z,2.40
2018-04-28T12:12:37.415Z,2.30
2018-04-28T12:15:04.183Z,1.90
2018-04-28T12:17:31.154Z,2.07
2018-04-28T12:19:58.553Z,3.00
2018-04-28T12:22:25.388Z,2.20
2018-04-28T12:24:52.264Z,2.23
2018-04-28T12:27:19.617Z,3.73
2018-04-28T12:29:46.532Z,4.57
2018-04-28T12:32:13.251Z,4.07
2018-04-28T12:34:45.981Z,2.53
2018-04-28T12:37:14.465Z,2.97
2018-04-28T12:39:42.948Z,2.73
2018-04-28T12:42:09.713Z,2.13
2018-04-28T12:44:36.888Z,2.93
2018-04-28T12:47:07.392Z,2.40
2018-04-28T12:49:34.621Z,2.13
2018-04-28T12:52:01.246Z,2.47
2018-04-28T12:54:27.917Z,2.50
2018-04-28T12:56:54.554Z,3.07
2018-04-28T12:59:21.170Z,3.17
2018-04-28T13:01:47.807Z,3.20
2018-04-28T13:04:14.416Z,3.07
2018-04-28T13:06:41.069Z,3.73
2018-04-28T13:09:07.686Z,2.30
2018-04-28T13:11:34.327Z,3.33
2018-04-28T13:14:00.942Z,3.13
2018-04-28T13:16:27.582Z,3.60
2018-04-28T13:18:54.190Z,3.33
2018-04-28T13:21:20.845Z,3.07
2018-04-28T13:23:47.454Z,3.80
2018-04-28T13:26:14.083Z,3.40
2018-04-28T13:28:40.689Z,3.90
2018-04-28T13:31:07.326Z,3.83
2018-04-28T13:33:33.944Z,3.87
2018-04-28T13:36:00.590Z,3.33
2018-04-28T13:38:27.217Z,3.30
2018-04-28T13:40:53.830Z,4.07
2018-04-28T13:43:21.204Z,3.00
2018-04-28T13:45:47.826Z,3.57
2018-04-28T13:48:14.466Z,3.50
2018-04-28T13:50:41.081Z,3.00
2018-04-28T13:53:07.770Z,4.17
2018-04-28T13:55:34.402Z,3.73
2018-04-28T13:58:01.019Z,2.93
2018-04-28T14:00:27.646Z,3.37
2018-04-28T14:02:54.310Z,2.40
2018-04-28T14:05:20.918Z,3.73
2018-04-28T14:07:47.546Z,3.10
2018-04-28T14:10:14.203Z,2.60
2018-04-28T14:12:40.842Z,2.87
2018-04-28T14:15:08.102Z,2.57
2018-04-28T14:17:34.756Z,2.40
2018-04-28T14:20:01.374Z,2.80
2018-04-28T14:22:27.978Z,2.50
2018-04-28T14:24:54.593Z,2.50
2018-04-28T14:27:21.247Z,2.83
2018-04-28T14:29:47.874Z,3.17
2018-04-28T14:32:14.490Z,2.80
2018-04-28T14:34:41.137Z,2.37
2018-04-28T14:37:07.771Z,2.30
2018-04-28T14:39:34.480Z,2.80
2018-04-28T14:42:01.038Z,2.97
2018-04-28T14:44:27.672Z,4.03
2018-04-28T14:46:54.303Z,3.50
2018-04-28T14:49:20.946Z,2.60
2018-04-28T14:51:47.672Z,3.17
2018-04-28T14:54:14.312Z,3.43
2018-04-28T14:56:40.945Z,3.20
2018-04-28T14:59:07.562Z,3.30
2018-04-28T15:01:34.186Z,3.80
2018-04-28T15:04:00.801Z,3.80
2018-04-28T15:06:27.462Z,3.77
2018-04-28T15:08:54.083Z,3.70
2018-04-28T15:11:20.825Z,3.33
2018-04-28T15:13:47.519Z,3.30
2018-04-28T15:16:14.167Z,3.60
2018-04-28T15:18:40.863Z,3.63
2018-04-28T15:21:07.486Z,4.43
2018-04-28T15:23:34.138Z,3.12
2018-04-28T15:26:00.754Z,5.07
2018-04-28T15:28:27.480Z,3.20
2018-04-28T15:30:54.019Z,3.53
2018-04-28T15:33:20.663Z,3.62
2018-04-28T15:35:47.323Z,3.40
2018-04-28T15:38:13.962Z,3.25
2018-04-28T15:40:40.571Z,3.40
2018-04-28T15:43:07.211Z,3.40
2018-04-28T15:45:33.844Z,3.30
2018-04-28T15:48:00.502Z,3.08
2018-04-28T15:50:27.119Z,3.00
2018-04-28T15:52:53.743Z,3.50
2018-04-28T15:55:20.404Z,3.27
2018-04-28T15:57:48.029Z,3.10
2018-04-28T16:00:14.647Z,3.03
2018-04-28T16:02:41.433Z,3.25
2018-04-28T16:05:08.003Z,3.00
2018-04-28T16:07:34.638Z,3.40
2018-04-28T16:10:01.273Z,2.77
2018-04-28T16:12:27.886Z,3.27
2018-04-28T16:14:54.508Z,3.30
2018-04-28T16:17:21.134Z,3.17
2018-04-28T16:19:47.755Z,3.33
2018-04-28T16:22:14.374Z,2.80
2018-04-28T16:24:40.987Z,2.90
2018-04-28T16:27:08.140Z,4.90
2018-04-28T16:29:34.749Z,3.25
2018-04-28T16:32:02.219Z,3.78
2018-04-28T16:34:28.852Z,3.53
2018-04-28T16:37:01.379Z,3.70
2018-04-28T16:39:28.132Z,3.03
2018-04-28T16:41:54.754Z,5.03
2018-04-28T16:44:21.395Z,3.30
2018-04-28T16:46:48.061Z,3.10
2018-04-28T16:49:14.768Z,4.15
2018-04-28T16:51:41.407Z,3.70
2018-04-28T16:54:09.142Z,4.60
2018-04-28T16:56:40.326Z,3.92
2018-04-28T16:59:07.080Z,4.30
2018-04-28T17:01:33.731Z,3.50
2018-04-28T17:04:00.652Z,3.20
2018-04-28T17:06:28.200Z,3.65
2018-04-28T17:08:56.274Z,3.50
2018-04-28T17:11:31.264Z,3.30
2018-04-28T17:13:57.920Z,3.37
2018-04-28T17:16:24.983Z,4.10
2018-04-28T17:18:52.648Z,6.40
2018-04-28T17:21:20.198Z,5.75
2018-04-28T17:23:46.859Z,5.10
2018-04-28T17:26:14.140Z,4.32
2018-04-28T17:28:44.803Z,5.60
2018-04-28T17:31:11.592Z,5.25
2018-04-28T17:33:38.291Z,5.97
2018-04-28T17:36:07.674Z,5.28
2018-04-28T17:38:35.273Z,5.25
2018-04-28T17:41:02.195Z,4.82
2018-04-28T17:43:28.873Z,4.05
2018-04-28T17:45:55.522Z,3.15
2018-04-28T17:48:25.922Z,3.42
2018-04-28T17:50:53.462Z,3.42
2018-04-28T17:53:20.103Z,3.30
2018-04-28T17:55:46.778Z,3.50
2018-04-28T17:58:13.416Z,3.33
2018-04-28T18:00:40.387Z,3.50
2018-04-28T18:03:07.048Z,3.72
2018-04-28T18:05:33.765Z,3.53
2018-04-28T18:08:01.377Z,3.50
2018-04-28T18:10:28.147Z,3.25
2018-04-28T18:12:54.818Z,4.68
2018-04-28T18:15:21.999Z,3.90
2018-04-28T18:17:49.263Z,4.30
2018-04-28T18:20:19.916Z,4.12
2018-04-28T18:22:46.599Z,5.28
2018-04-28T18:25:13.234Z,6.55
2018-04-28T18:27:39.874Z,8.43
2018-04-28T18:30:06.579Z,8.27
2018-04-28T18:32:33.309Z,6.80
2018-04-28T18:35:00.830Z,6.87
2018-04-28T18:37:27.515Z,6.00
2018-04-28T18:39:57.329Z,5.45
2018-04-28T18:42:25.767Z,4.90
2018-04-28T18:44:52.451Z,4.55
2018-04-28T18:47:19.947Z,4.53
2018-04-28T18:49:46.681Z,4.50
2018-04-28T18:52:13.342Z,5.05
2018-04-28T18:54:40.109Z,5.37
2018-04-28T18:57:06.727Z,5.85
2018-04-28T18:59:33.534Z,4.95
2018-04-28T19:02:00.262Z,4.53
2018-04-28T19:04:27.063Z,4.35
2018-04-28T19:06:53.858Z,4.85
2018-04-28T19:09:20.777Z,4.62
2018-04-28T19:11:47.811Z,5.15
2018-04-28T19:14:18.346Z,4.50
2018-04-28T19:16:45.282Z,4.15
2018-04-28T19:19:12.414Z,4.85
2018-04-28T19:21:39.403Z,4.82
2018-04-28T19:24:06.313Z,5.35
2018-04-28T19:26:33.128Z,4.87
2018-04-28T19:29:00.022Z,4.40
2018-04-28T19:31:26.799Z,5.03
2018-04-28T19:33:54.206Z,4.43
2018-04-28T19:36:20.943Z,5.35
2018-04-28T19:38:47.762Z,5.28
2018-04-28T19:41:14.626Z,4.45
2018-04-28T19:43:41.835Z,4.70
2018-04-28T19:46:08.749Z,4.68
2018-04-28T19:48:35.767Z,4.07
2018-04-28T19:51:03.183Z,4.22
2018-04-28T19:53:30.008Z,3.60
2018-04-28T19:55:57.041Z,4.60
2018-04-28T19:58:23.917Z,4.53
2018-04-28T20:03:39.035Z,4.70
2018-04-28T20:06:06.961Z,3.92
2018-04-28T20:08:34.616Z,3.50
2018-04-28T20:11:02.044Z,4.10
2018-04-28T20:13:28.918Z,4.03
2018-04-28T20:15:55.774Z,4.00
2018-04-28T20:18:22.701Z,3.72
2018-04-28T20:20:49.425Z,4.70
2018-04-28T20:23:22.037Z,4.37
2018-04-28T20:25:49.532Z,4.53
2018-04-28T20:28:16.459Z,4.57
2018-04-28T20:30:43.270Z,4.28
2018-04-28T20:33:10.245Z,4.07
2018-04-28T20:35:37.154Z,3.78
2018-04-28T20:38:03.885Z,4.10
2018-04-28T20:40:30.719Z,3.30
2018-04-28T20:42:57.523Z,4.55
2018-04-28T20:45:24.264Z,3.95
2018-04-28T20:47:51.025Z,3.67
2018-04-28T20:50:18.416Z,3.53
2018-04-28T20:52:45.289Z,3.40
2018-04-28T20:55:12.048Z,3.90
2018-04-28T20:57:38.833Z,4.22
2018-04-28T21:00:05.843Z,3.75
2018-04-28T21:02:32.634Z,4.30
2018-04-28T21:04:59.436Z,3.60
2018-04-28T21:07:26.096Z,3.45
2018-04-28T21:09:52.899Z,4.12
2018-04-28T21:12:19.567Z,4.43
2018-04-28T21:14:50.836Z,3.90
2018-04-28T21:17:18.255Z,4.50
2018-04-28T21:19:44.945Z,4.10
2018-04-28T21:22:15.922Z,3.97
2018-04-28T21:24:42.587Z,3.53
2018-04-28T21:27:09.288Z,3.90
2018-04-28T21:29:35.950Z,3.65
2018-04-28T21:32:06.747Z,3.90
2018-04-28T21:34:33.425Z,4.22
2018-04-28T21:37:00.754Z,4.78
2018-04-28T21:39:27.516Z,5.07
2018-04-28T21:41:54.196Z,4.70
2018-04-28T21:44:20.881Z,5.35
2018-04-28T21:46:47.883Z,5.22
2018-04-28T21:49:14.541Z,5.40
2018-04-28T21:51:44.255Z,5.80
2018-04-28T21:54:10.950Z,6.07
2018-04-28T21:56:50.406Z,5.25
2018-04-28T21:59:21.172Z,5.90
2018-04-28T22:01:48.392Z,5.95
2018-04-28T22:04:15.046Z,6.05
2018-04-28T22:06:46.373Z,5.90
2018-04-28T22:09:17.300Z,5.10
2018-04-28T22:11:48.208Z,5.53
2018-04-28T22:14:15.905Z,5.40
2018-04-28T22:16:46.656Z,6.57
2018-04-28T22:19:13.881Z,6.40
2018-04-28T22:21:44.558Z,6.55
2018-04-28T22:24:15.771Z,7.22
2018-04-28T22:26:42.452Z,7.22
2018-04-28T22:29:09.070Z,6.57
2018-04-28T22:31:35.707Z,7.15
2018-04-28T22:34:02.985Z,6.18
2018-04-28T22:36:29.679Z,6.47
2018-04-28T22:38:56.385Z,5.95
2018-04-28T22:41:23.020Z,7.95
2018-04-28T22:43:49.725Z,6.15
2018-04-28T22:46:20.273Z,6.72
2018-04-28T22:48:52.059Z,7.82
2018-04-28T22:51:18.674Z,7.40
2018-04-28T22:53:45.419Z,6.97
2018-04-28T22:56:12.067Z,5.85
2018-04-28T22:58:38.726Z,7.87
2018-04-28T23:01:05.374Z,6.22
2018-04-28T23:03:34.473Z,6.80
2018-04-28T23:06:01.135Z,6.05
2018-04-28T23:08:27.783Z,7.57
2018-04-28T23:10:54.430Z,7.97
2018-04-28T23:13:21.134Z,7.00
2018-04-28T23:15:47.794Z,6.87
2018-04-28T23:18:15.074Z,6.87
2018-04-28T23:20:41.694Z,6.95
2018-04-28T23:23:10.463Z,7.35
2018-04-28T23:25:37.117Z,7.20
2018-04-28T23:28:03.747Z,7.45
2018-04-28T23:30:30.419Z,7.95
2018-04-28T23:32:57.247Z,7.97
2018-04-28T23:35:24.729Z,7.62
2018-04-28T23:37:55.434Z,7.45
2018-04-28T23:40:22.057Z,7.37
2018-04-28T23:42:48.847Z,7.90
2018-04-28T23:45:16.329Z,8.25
2018-04-28T23:47:47.679Z,8.55
2018-04-28T23:50:14.314Z,7.93
2018-04-28T23:52:40.941Z,9.02
2018-04-28T23:55:07.638Z,7.80
2018-04-28T23:57:34.292Z,7.80
